Meteorología y climatología de Navarra
Datos de la estación - Meteo Navarra

Estación de Urbasa GN

Altitud 886 m.


Datos desde el 26/03/2020 hasta el 27/03/2020 en horario solar
Los datos son PROVISIONALES

Anterior Página 1 de 1 Siguiente Descargar: Formato para Excel 2000 o superior   Formato csv   Formato para OpenOffice Calc
Fecha Temperatura Humedad relativa Radiación global Insolación Precipitación Vel. viento 10 m Vel. viento 10 m Dir. viento 10 m
ºC % W/m² s l/m² m/s km/h º
26/03/2020 0:00 2.3 87 0.0 0 0.0 1.2 4.4 265
26/03/2020 0:10 2.3 87 0.0 0 0.0 0.5 1.8 342
26/03/2020 0:20 2.2 88 0.0 0 0.0 1.2 4.5 331
26/03/2020 0:30 2.2 89 0.0 0 0.0 2.1 7.5 335
26/03/2020 0:40 2.2 90 0.0 0 0.0 1.2 4.2 285
26/03/2020 0:50 2.4 90 0.0 0 0.0 1.2 4.2 288
26/03/2020 1:00 2.3 91 0.0 0 0.0 0.7 2.5 77
26/03/2020 1:10 2.4 91 0.0 0 0.0 1.2 4.2 264
26/03/2020 1:20 2.6 91 0.0 0 0.0 1.2 4.3 355
26/03/2020 1:30 2.5 91 0.0 0 0.0 0.9 3.2 73
26/03/2020 1:40 2.8 92 0.0 0 0.0 1.2 4.5 145
26/03/2020 1:50 3.1 91 0.0 0 0.0 2.3 8.2 302
26/03/2020 2:00 3.3 90 0.0 0 0.0 1.7 6.2 333
26/03/2020 2:10 3.3 90 0.0 0 0.0 1.9 6.8 332
26/03/2020 2:20 3.0 90 0.0 0 0.0 1.5 5.3 315
26/03/2020 2:30 2.7 91 0.0 0 0.0 1.5 5.5 340
26/03/2020 2:40 3.0 92 0.0 0 0.0 2.8 9.9 311
26/03/2020 2:50 3.2 91 0.0 0 0.0 1.9 6.7 311
26/03/2020 3:00 3.2 90 0.0 0 0.0 2.4 8.6 296
26/03/2020 3:10 3.2 90 0.0 0 0.1 2.6 9.5 275
26/03/2020 3:20 3.1 92 0.0 0 0.0 1.7 6.0 314
26/03/2020 3:30 3.0 93 0.0 0 0.0 2.8 10.1 290
26/03/2020 3:40 3.0 94 0.0 0 0.0 1.9 6.9 284
26/03/2020 3:50 3.0 94 0.0 0 0.0 2.4 8.5 246
26/03/2020 4:00 3.0 93 0.0 0 0.0 3.0 10.7 278
26/03/2020 4:10 3.1 92 0.0 0 0.0 2.4 8.8 256
26/03/2020 4:20 3.1 91 0.0 0 0.0 1.7 6.0 274
26/03/2020 4:30 3.1 91 0.0 0 0.0 2.4 8.5 273
26/03/2020 4:40 3.0 90 0.0 0 0.0 2.7 9.8 275
26/03/2020 4:50 2.9 90 0.0 0 0.0 1.3 4.8 319
26/03/2020 5:00 3.0 90 0.0 0 0.0 1.9 6.8 255
26/03/2020 5:10 3.1 89 0.0 0 0.0 3.0 10.7 289
26/03/2020 5:20 3.0 88 0.0 0 0.0 2.9 10.4 269
26/03/2020 5:30 3.0 88 0.0 0 0.0 2.4 8.6 258
26/03/2020 5:40 3.0 88 0.0 0 0.0 2.0 7.1 294
26/03/2020 5:50 3.0 88 0.0 0 0.0 2.7 9.8 268
26/03/2020 6:00 3.1 88 0.0 0 0.0 1.6 5.8 311
26/03/2020 6:10 3.0 88 0.0 0 0.0 3.1 11.3 333
26/03/2020 6:20 3.0 88 0.0 0 0.0 2.2 7.9 8
26/03/2020 6:30 3.0 88 0.0 0 0.0 1.6 5.8 358
26/03/2020 6:40 3.0 87 0.0 0 0.0 2.4 8.7 42
26/03/2020 6:50 3.0 87 0.0 0 0.0 1.7 6.0 14
26/03/2020 7:00 3.0 86 0.9 0 0.0 2.5 9.0 346
26/03/2020 7:10 3.1 85 1.6 0 0.0 2.7 9.8 335
26/03/2020 7:20 3.0 84 5.8 0 0.0 2.3 8.3 330
26/03/2020 7:30 3.0 84 25.3 0 0.0 2.2 8.1 289
26/03/2020 7:40 3.1 83 29.3 0 0.0 1.7 6.1 266
26/03/2020 7:50 3.2 82 52.7 0 0.0 2.1 7.7 352
26/03/2020 8:00 3.2 80 87.6 0 0.0 3.9 14.0 344
26/03/2020 8:10 3.4 78 207.0 206 0.0 4.0 14.4 329
26/03/2020 8:20 3.5 78 101.4 96 0.0 2.4 8.5 336
26/03/2020 8:30 3.4 78 31.7 0 0.0 2.3 8.1 342
26/03/2020 8:40 3.4 74 81.1 0 0.0 3.8 13.5 333
26/03/2020 8:50 3.4 73 89.2 0 0.0 4.3 15.5 336
26/03/2020 9:00 3.6 71 382.8 376 0.0 4.2 15.3 336
26/03/2020 9:10 3.9 69 282.3 150 0.0 3.3 11.7 2
26/03/2020 9:20 4.1 65 348.3 270 0.0 3.2 11.5 358
26/03/2020 9:30 4.2 62 324.1 248 0.1 4.1 14.8 352
26/03/2020 9:40 3.8 61 471.4 300 0.0 2.9 10.5 349
26/03/2020 9:50 4.3 59 347.0 200 0.0 4.0 14.5 351
26/03/2020 10:00 3.6 64 225.2 34 0.0 3.6 13.0 1
26/03/2020 10:10 3.5 60 254.1 48 0.0 4.1 14.6 332
26/03/2020 10:20 3.8 57 360.9 146 0.0 3.9 14.1 340
26/03/2020 10:30 3.6 58 181.0 0 0.0 3.5 12.7 323
26/03/2020 10:40 3.4 59 212.2 20 0.0 3.2 11.4 344
26/03/2020 10:50 3.3 59 153.1 0 0.0 4.0 14.2 326
26/03/2020 11:00 3.5 58 387.0 154 0.0 3.0 10.9 329
26/03/2020 11:10 3.5 61 342.8 124 0.0 3.8 13.6 320
26/03/2020 11:20 3.7 61 410.5 188 0.0 3.4 12.3 332
26/03/2020 11:30 3.4 62 174.5 0 0.0 4.1 14.9 326
26/03/2020 11:40 3.3 62 152.1 0 0.0 2.7 9.8 314
26/03/2020 11:50 3.6 63 700.4 368 0.0 3.3 12.0 330
26/03/2020 12:00 4.5 57 862.0 502 0.0 3.7 13.2 4
26/03/2020 12:10 4.7 54 933.0 570 0.0 3.6 12.9 338
26/03/2020 12:20 4.9 53 939.0 580 0.0 3.4 12.1 353
26/03/2020 12:30 5.4 54 728.3 370 0.0 3.2 11.4 356
26/03/2020 12:40 4.9 51 521.4 216 0.0 4.1 14.6 7
26/03/2020 12:50 4.2 52 386.0 112 0.0 4.0 14.3 4
26/03/2020 13:00 4.5 52 539.9 304 0.0 4.2 14.9 358
26/03/2020 13:10 5.0 52 885.0 524 0.0 2.8 10.1 312
26/03/2020 13:20 5.2 51 702.1 436 0.0 3.0 10.7 7
26/03/2020 13:30 4.7 52 512.2 242 0.0 4.1 14.8 3
26/03/2020 13:40 4.5 52 393.0 166 0.0 3.3 11.8 346
26/03/2020 13:50 4.5 52 374.8 154 0.0 3.4 12.3 353
26/03/2020 14:00 4.6 52 526.0 286 0.0 3.3 11.8 338
26/03/2020 14:10 4.8 54 424.9 228 0.0 3.7 13.4 344
26/03/2020 14:20 5.0 53 698.1 510 0.0 3.5 12.6 359
26/03/2020 14:30 5.5 52 715.6 530 0.0 2.6 9.2 349
26/03/2020 14:40 5.4 51 703.1 568 0.0 3.9 14.1 344
26/03/2020 14:50 5.3 52 702.5 596 0.0 3.9 14.1 342
26/03/2020 15:00 5.2 51 578.5 498 0.0 3.7 13.4 346
26/03/2020 15:10 4.8 48 354.7 264 0.0 3.6 12.9 355
26/03/2020 15:20 4.7 51 554.0 498 0.0 3.4 12.3 320
26/03/2020 15:30 5.2 50 599.1 584 0.0 3.0 10.7 336
26/03/2020 15:40 5.0 49 457.4 470 0.0 2.8 10.1 318
26/03/2020 15:50 4.5 52 335.8 318 0.0 3.6 13.0 357
26/03/2020 16:00 4.1 53 211.0 142 0.0 2.7 9.8 356
26/03/2020 16:10 3.9 54 231.9 196 0.0 3.0 10.9 324
26/03/2020 16:20 3.8 54 147.2 64 0.0 3.0 10.9 333
26/03/2020 16:30 3.9 55 272.4 390 0.0 2.8 10.1 343
26/03/2020 16:40 4.1 54 319.5 568 0.0 2.7 9.8 348
26/03/2020 16:50 3.9 55 182.5 308 0.0 2.4 8.8 337
26/03/2020 17:00 3.8 58 206.5 470 0.0 2.4 8.5 349
26/03/2020 17:10 3.4 60 129.8 282 0.0 2.1 7.6 346
26/03/2020 17:20 3.3 61 130.8 372 0.0 2.7 9.6 327
26/03/2020 17:30 3.2 62 59.8 6 0.0 2.4 8.5 341
26/03/2020 17:40 2.9 63 47.3 0 0.0 2.7 9.7 337
26/03/2020 17:50 2.7 64 38.8 0 0.0 2.4 8.5 342
26/03/2020 18:00 2.7 65 28.2 0 0.0 2.3 8.1 353
26/03/2020 18:10 2.5 66 6.3 0 0.0 1.7 6.0 338
26/03/2020 18:20 2.3 66 0.0 0 0.0 1.7 6.2 354
26/03/2020 18:30 2.2 66 0.0 0 0.0 1.4 5.1 348
26/03/2020 18:40 2.1 67 0.0 0 0.0 1.8 6.5 354
26/03/2020 18:50 1.9 67 0.0 0 0.0 1.5 5.5 339
26/03/2020 19:00 1.9 67 0.0 0 0.0 2.4 8.6 343
26/03/2020 19:10 1.9 66 0.0 0 0.0 2.0 7.2 337
26/03/2020 19:20 1.7 69 0.0 0 0.0 1.8 6.6 4
26/03/2020 19:30 1.6 70 0.0 0 0.0 1.6 5.7 13
26/03/2020 19:40 1.4 72 0.0 0 0.0 2.3 8.3 22
26/03/2020 19:50 1.3 74 0.0 0 0.0 1.9 6.9 7
26/03/2020 20:00 1.3 75 0.0 0 0.0 2.0 7.3 355
26/03/2020 20:10 1.0 75 0.0 0 0.0 2.1 7.5 7
26/03/2020 20:20 0.9 75 0.0 0 0.0 1.7 6.2 2
26/03/2020 20:30 0.8 75 0.0 0 0.0 2.0 7.3 347
26/03/2020 20:40 0.6 75 0.0 0 0.0 1.2 4.4 18
26/03/2020 20:50 0.3 76 0.0 0 0.0 1.1 3.9 19
26/03/2020 21:00 0.4 76 0.0 0 0.0 1.2 4.4 355
26/03/2020 21:10 0.4 76 0.0 0 0.0 1.7 6.1 351
26/03/2020 21:20 0.2 76 0.0 0 0.0 1.6 5.8 4
26/03/2020 21:30 0.2 77 0.0 0 0.0 1.1 4.1 36
26/03/2020 21:40 0.2 78 0.0 0 0.0 1.9 6.7 354
26/03/2020 21:50 0.0 78 0.0 0 0.0 0.6 2.1 355
26/03/2020 22:00 -0.2 79 0.0 0 0.0 0.8 3.0 338
26/03/2020 22:10 -0.3 79 0.0 0 0.0 1.0 3.5 339
26/03/2020 22:20 -0.2 79 0.0 0 0.0 1.1 4.0 351
26/03/2020 22:30 -0.2 78 0.0 0 0.0 1.1 4.1 341
26/03/2020 22:40 -0.5 80 0.0 0 0.0 0.7 2.3 304
26/03/2020 22:50 -0.7 81 0.0 0 0.0 1.0 3.5 323
26/03/2020 23:00 -0.7 80 0.0 0 0.0 1.2 4.1 347
26/03/2020 23:10 -0.5 79 0.0 0 0.0 1.1 4.0 335
26/03/2020 23:20 -0.4 79 0.0 0 0.0 0.8 2.7 1
26/03/2020 23:30 -0.4 79 0.0 0 0.0 0.5 1.7 339
26/03/2020 23:40 -1.0 81 0.0 0 0.0 0.5 1.7 21
26/03/2020 23:50 -1.9 85 0.0 0 0.0 0.7 2.6 189
Anterior Página 1 de 1 Siguiente

NOTA: Tipo de datos según el color:
   - Valores diarios o 10 minutos correctos
   - Valores diarios calculados a partir de un número de datos 10 minutos menor que 144 y mayor que 120, o de un número de datos semihorarios menor que 48 y mayor que 40 (caso de las estaciones de INTIA y del Ministerio)
   - Valores diez minutos estimados


Contacto        Enlaces        Aviso legal